sensor_id;sensor_type;location;lat;lon;timestamp;P1;durP1;ratioP1;P2;durP2;ratioP2
19280;SDS011;9774;52.034;5.342;2024-02-21T00:02:23;5.47;;;2.58;;
19280;SDS011;9774;52.034;5.342;2024-02-21T00:04:50;7.15;;;2.78;;
19280;SDS011;9774;52.034;5.342;2024-02-21T00:07:17;5.75;;;2.70;;
19280;SDS011;9774;52.034;5.342;2024-02-21T00:09:46;6.78;;;2.58;;
19280;SDS011;9774;52.034;5.342;2024-02-21T00:12:13;5.70;;;3.03;;
19280;SDS011;9774;52.034;5.342;2024-02-21T00:14:40;5.72;;;2.50;;
19280;SDS011;9774;52.034;5.342;2024-02-21T00:17:07;7.63;;;2.45;;
19280;SDS011;9774;52.034;5.342;2024-02-21T00:19:34;6.53;;;2.75;;
19280;SDS011;9774;52.034;5.342;2024-02-21T00:22:01;5.13;;;2.35;;
19280;SDS011;9774;52.034;5.342;2024-02-21T00:24:29;6.85;;;2.30;;
19280;SDS011;9774;52.034;5.342;2024-02-21T00:26:57;6.65;;;2.80;;
19280;SDS011;9774;52.034;5.342;2024-02-21T00:29:24;5.18;;;2.38;;
19280;SDS011;9774;52.034;5.342;2024-02-21T00:31:52;5.60;;;2.90;;
19280;SDS011;9774;52.034;5.342;2024-02-21T00:34:19;5.75;;;2.70;;
19280;SDS011;9774;52.034;5.342;2024-02-21T00:36:46;6.20;;;2.50;;
19280;SDS011;9774;52.034;5.342;2024-02-21T00:39:14;6.18;;;3.05;;
19280;SDS011;9774;52.034;5.342;2024-02-21T00:41:42;4.07;;;2.40;;
19280;SDS011;9774;52.034;5.342;2024-02-21T00:44:10;5.40;;;2.58;;
19280;SDS011;9774;52.034;5.342;2024-02-21T00:46:38;7.10;;;2.90;;
19280;SDS011;9774;52.034;5.342;2024-02-21T00:49:05;7.00;;;2.90;;
19280;SDS011;9774;52.034;5.342;2024-02-21T00:51:32;6.63;;;3.08;;
19280;SDS011;9774;52.034;5.342;2024-02-21T00:53:59;8.32;;;3.00;;
19280;SDS011;9774;52.034;5.342;2024-02-21T00:56:26;6.53;;;3.13;;
19280;SDS011;9774;52.034;5.342;2024-02-21T00:58:54;5.90;;;2.85;;
19280;SDS011;9774;52.034;5.342;2024-02-21T01:01:23;5.93;;;2.67;;
19280;SDS011;9774;52.034;5.342;2024-02-21T01:03:51;8.93;;;2.70;;
19280;SDS011;9774;52.034;5.342;2024-02-21T01:06:19;7.78;;;2.78;;
19280;SDS011;9774;52.034;5.342;2024-02-21T01:08:47;3.47;;;2.17;;
19280;SDS011;9774;52.034;5.342;2024-02-21T01:11:14;4.50;;;2.30;;
19280;SDS011;9774;52.034;5.342;2024-02-21T01:13:41;7.05;;;2.05;;
19280;SDS011;9774;52.034;5.342;2024-02-21T01:16:08;5.70;;;2.33;;
19280;SDS011;9774;52.034;5.342;2024-02-21T01:18:38;5.95;;;2.67;;
19280;SDS011;9774;52.034;5.342;2024-02-21T01:21:06;5.57;;;2.42;;
19280;SDS011;9774;52.034;5.342;2024-02-21T01:23:33;5.55;;;2.55;;
19280;SDS011;9774;52.034;5.342;2024-02-21T01:26:00;4.63;;;2.00;;
19280;SDS011;9774;52.034;5.342;2024-02-21T01:28:28;8.90;;;3.25;;
19280;SDS011;9774;52.034;5.342;2024-02-21T01:30:55;9.93;;;2.40;;
19280;SDS011;9774;52.034;5.342;2024-02-21T01:33:23;7.68;;;2.60;;
19280;SDS011;9774;52.034;5.342;2024-02-21T01:35:51;4.60;;;2.35;;
19280;SDS011;9774;52.034;5.342;2024-02-21T01:38:18;5.57;;;2.25;;
19280;SDS011;9774;52.034;5.342;2024-02-21T01:40:46;8.73;;;2.40;;
19280;SDS011;9774;52.034;5.342;2024-02-21T01:43:16;6.30;;;2.60;;
19280;SDS011;9774;52.034;5.342;2024-02-21T01:45:46;5.47;;;2.08;;
19280;SDS011;9774;52.034;5.342;2024-02-21T01:48:17;5.55;;;2.00;;
19280;SDS011;9774;52.034;5.342;2024-02-21T01:50:44;3.97;;;2.20;;
19280;SDS011;9774;52.034;5.342;2024-02-21T01:53:13;6.90;;;2.83;;
19280;SDS011;9774;52.034;5.342;2024-02-21T01:55:44;4.97;;;2.70;;
19280;SDS011;9774;52.034;5.342;2024-02-21T01:58:13;4.75;;;2.20;;
19280;SDS011;9774;52.034;5.342;2024-02-21T02:00:41;4.35;;;2.00;;
19280;SDS011;9774;52.034;5.342;2024-02-21T02:03:10;4.50;;;2.08;;
19280;SDS011;9774;52.034;5.342;2024-02-21T02:05:42;6.97;;;2.65;;
19280;SDS011;9774;52.034;5.342;2024-02-21T02:08:11;4.38;;;2.30;;
19280;SDS011;9774;52.034;5.342;2024-02-21T02:10:40;6.32;;;3.20;;
19280;SDS011;9774;52.034;5.342;2024-02-21T02:13:08;5.80;;;2.50;;
19280;SDS011;9774;52.034;5.342;2024-02-21T02:15:39;3.97;;;2.95;;
19280;SDS011;9774;52.034;5.342;2024-02-21T02:18:07;4.57;;;2.10;;
19280;SDS011;9774;52.034;5.342;2024-02-21T02:20:34;5.60;;;2.50;;
19280;SDS011;9774;52.034;5.342;2024-02-21T02:23:03;7.55;;;2.47;;
19280;SDS011;9774;52.034;5.342;2024-02-21T02:25:38;4.93;;;2.70;;
19280;SDS011;9774;52.034;5.342;2024-02-21T02:28:06;5.68;;;2.00;;
19280;SDS011;9774;52.034;5.342;2024-02-21T02:30:34;4.70;;;2.47;;
19280;SDS011;9774;52.034;5.342;2024-02-21T02:33:03;3.95;;;2.45;;
19280;SDS011;9774;52.034;5.342;2024-02-21T02:35:31;9.13;;;2.90;;
19280;SDS011;9774;52.034;5.342;2024-02-21T02:38:00;5.43;;;2.03;;
19280;SDS011;9774;52.034;5.342;2024-02-21T02:40:27;7.13;;;2.50;;
19280;SDS011;9774;52.034;5.342;2024-02-21T02:42:56;5.90;;;2.22;;
19280;SDS011;9774;52.034;5.342;2024-02-21T02:45:23;4.60;;;2.58;;
19280;SDS011;9774;52.034;5.342;2024-02-21T02:47:51;5.07;;;2.45;;
19280;SDS011;9774;52.034;5.342;2024-02-21T02:50:19;4.82;;;2.35;;
19280;SDS011;9774;52.034;5.342;2024-02-21T02:52:46;5.75;;;2.60;;
19280;SDS011;9774;52.034;5.342;2024-02-21T02:55:14;7.03;;;2.50;;
19280;SDS011;9774;52.034;5.342;2024-02-21T02:57:41;4.82;;;2.33;;
19280;SDS011;9774;52.034;5.342;2024-02-21T03:00:12;5.95;;;3.00;;
19280;SDS011;9774;52.034;5.342;2024-02-21T03:02:41;5.32;;;2.90;;
19280;SDS011;9774;52.034;5.342;2024-02-21T03:05:13;5.80;;;2.65;;
19280;SDS011;9774;52.034;5.342;2024-02-21T03:07:42;13.23;;;3.35;;
19280;SDS011;9774;52.034;5.342;2024-02-21T03:10:10;8.43;;;3.05;;
19280;SDS011;9774;52.034;5.342;2024-02-21T03:12:38;5.80;;;2.97;;
19280;SDS011;9774;52.034;5.342;2024-02-21T03:15:06;5.82;;;2.97;;
19280;SDS011;9774;52.034;5.342;2024-02-21T03:17:35;8.93;;;3.20;;
19280;SDS011;9774;52.034;5.342;2024-02-21T03:20:02;5.38;;;2.67;;
19280;SDS011;9774;52.034;5.342;2024-02-21T03:22:34;4.32;;;2.65;;
19280;SDS011;9774;52.034;5.342;2024-02-21T03:25:01;5.40;;;2.83;;
19280;SDS011;9774;52.034;5.342;2024-02-21T03:27:28;5.00;;;2.92;;
19280;SDS011;9774;52.034;5.342;2024-02-21T03:29:55;5.70;;;2.40;;
19280;SDS011;9774;52.034;5.342;2024-02-21T03:32:22;5.03;;;2.85;;
19280;SDS011;9774;52.034;5.342;2024-02-21T03:34:51;5.32;;;2.95;;
19280;SDS011;9774;52.034;5.342;2024-02-21T03:37:18;6.25;;;3.03;;
19280;SDS011;9774;52.034;5.342;2024-02-21T03:39:45;3.90;;;2.45;;
19280;SDS011;9774;52.034;5.342;2024-02-21T03:42:12;5.00;;;2.60;;
19280;SDS011;9774;52.034;5.342;2024-02-21T03:44:39;5.28;;;3.15;;
19280;SDS011;9774;52.034;5.342;2024-02-21T03:47:06;4.75;;;2.85;;
19280;SDS011;9774;52.034;5.342;2024-02-21T03:49:36;6.00;;;2.88;;
19280;SDS011;9774;52.034;5.342;2024-02-21T03:52:05;3.95;;;2.58;;
19280;SDS011;9774;52.034;5.342;2024-02-21T03:54:33;7.05;;;2.80;;
19280;SDS011;9774;52.034;5.342;2024-02-21T03:57:00;5.10;;;2.83;;
19280;SDS011;9774;52.034;5.342;2024-02-21T03:59:27;5.50;;;2.40;;
19280;SDS011;9774;52.034;5.342;2024-02-21T04:01:54;4.90;;;2.88;;
19280;SDS011;9774;52.034;5.342;2024-02-21T04:04:21;6.30;;;3.05;;
19280;SDS011;9774;52.034;5.342;2024-02-21T04:06:49;4.85;;;2.60;;
19280;SDS011;9774;52.034;5.342;2024-02-21T04:09:18;4.78;;;3.05;;
19280;SDS011;9774;52.034;5.342;2024-02-21T04:11:46;7.53;;;2.85;;
19280;SDS011;9774;52.034;5.342;2024-02-21T04:14:13;5.50;;;2.78;;
19280;SDS011;9774;52.034;5.342;2024-02-21T04:16:40;7.47;;;3.42;;
19280;SDS011;9774;52.034;5.342;2024-02-21T04:19:07;5.15;;;2.83;;
19280;SDS011;9774;52.034;5.342;2024-02-21T04:21:34;4.70;;;3.25;;
19280;SDS011;9774;52.034;5.342;2024-02-21T04:24:02;5.80;;;2.80;;
19280;SDS011;9774;52.034;5.342;2024-02-21T04:26:32;7.22;;;2.92;;
19280;SDS011;9774;52.034;5.342;2024-02-21T04:28:59;5.45;;;2.88;;
19280;SDS011;9774;52.034;5.342;2024-02-21T04:31:26;5.45;;;3.15;;
19280;SDS011;9774;52.034;5.342;2024-02-21T04:33:53;7.40;;;3.08;;
19280;SDS011;9774;52.034;5.342;2024-02-21T04:36:20;4.20;;;3.22;;
19280;SDS011;9774;52.034;5.342;2024-02-21T04:38:48;3.83;;;2.85;;
19280;SDS011;9774;52.034;5.342;2024-02-21T04:41:15;4.55;;;3.08;;
19280;SDS011;9774;52.034;5.342;2024-02-21T04:43:45;6.15;;;2.88;;
19280;SDS011;9774;52.034;5.342;2024-02-21T04:46:12;7.22;;;3.03;;
19280;SDS011;9774;52.034;5.342;2024-02-21T04:48:41;5.32;;;2.70;;
19280;SDS011;9774;52.034;5.342;2024-02-21T04:51:08;5.47;;;3.13;;
19280;SDS011;9774;52.034;5.342;2024-02-21T04:53:35;4.45;;;3.33;;
19280;SDS011;9774;52.034;5.342;2024-02-21T04:56:02;10.57;;;3.40;;
19280;SDS011;9774;52.034;5.342;2024-02-21T04:58:30;6.78;;;3.10;;
19280;SDS011;9774;52.034;5.342;2024-02-21T05:00:59;5.07;;;2.63;;
19280;SDS011;9774;52.034;5.342;2024-02-21T05:03:26;5.00;;;2.65;;
19280;SDS011;9774;52.034;5.342;2024-02-21T05:05:53;8.18;;;4.25;;
19280;SDS011;9774;52.034;5.342;2024-02-21T05:08:20;6.65;;;3.33;;
19280;SDS011;9774;52.034;5.342;2024-02-21T05:10:47;4.38;;;3.00;;
19280;SDS011;9774;52.034;5.342;2024-02-21T05:13:14;6.40;;;3.35;;
19280;SDS011;9774;52.034;5.342;2024-02-21T05:15:41;5.78;;;3.10;;
19280;SDS011;9774;52.034;5.342;2024-02-21T05:18:10;5.53;;;3.38;;
19280;SDS011;9774;52.034;5.342;2024-02-21T05:20:37;4.20;;;3.20;;
19280;SDS011;9774;52.034;5.342;2024-02-21T05:23:04;5.38;;;3.58;;
19280;SDS011;9774;52.034;5.342;2024-02-21T05:25:31;5.65;;;3.30;;
19280;SDS011;9774;52.034;5.342;2024-02-21T05:27:58;5.20;;;3.25;;
19280;SDS011;9774;52.034;5.342;2024-02-21T05:30:27;5.82;;;3.25;;
19280;SDS011;9774;52.034;5.342;2024-02-21T05:32:54;4.72;;;3.20;;
19280;SDS011;9774;52.034;5.342;2024-02-21T05:35:26;6.53;;;3.70;;
19280;SDS011;9774;52.034;5.342;2024-02-21T05:37:53;4.97;;;3.08;;
19280;SDS011;9774;52.034;5.342;2024-02-21T05:40:20;5.03;;;3.13;;
19280;SDS011;9774;52.034;5.342;2024-02-21T05:42:48;6.18;;;3.50;;
19280;SDS011;9774;52.034;5.342;2024-02-21T05:45:16;8.65;;;3.67;;
19280;SDS011;9774;52.034;5.342;2024-02-21T05:47:43;5.18;;;3.50;;
19280;SDS011;9774;52.034;5.342;2024-02-21T05:50:10;4.82;;;3.42;;
19280;SDS011;9774;52.034;5.342;2024-02-21T05:52:39;7.95;;;3.85;;
19280;SDS011;9774;52.034;5.342;2024-02-21T05:55:06;7.60;;;4.57;;
19280;SDS011;9774;52.034;5.342;2024-02-21T05:57:34;7.10;;;4.47;;
19280;SDS011;9774;52.034;5.342;2024-02-21T06:00:03;5.00;;;4.22;;
19280;SDS011;9774;52.034;5.342;2024-02-21T06:02:32;6.90;;;4.57;;
19280;SDS011;9774;52.034;5.342;2024-02-21T06:04:59;7.57;;;4.32;;
19280;SDS011;9774;52.034;5.342;2024-02-21T06:07:26;9.40;;;3.85;;
19280;SDS011;9774;52.034;5.342;2024-02-21T06:09:55;9.38;;;4.97;;
19280;SDS011;9774;52.034;5.342;2024-02-21T06:12:24;8.15;;;4.55;;
19280;SDS011;9774;52.034;5.342;2024-02-21T06:14:52;5.88;;;4.45;;
19280;SDS011;9774;52.034;5.342;2024-02-21T06:17:20;7.30;;;5.07;;
19280;SDS011;9774;52.034;5.342;2024-02-21T06:19:51;8.63;;;4.63;;
19280;SDS011;9774;52.034;5.342;2024-02-21T06:22:20;9.65;;;5.05;;
19280;SDS011;9774;52.034;5.342;2024-02-21T06:24:47;7.72;;;4.97;;
19280;SDS011;9774;52.034;5.342;2024-02-21T06:27:17;12.15;;;6.13;;
19280;SDS011;9774;52.034;5.342;2024-02-21T06:29:45;9.85;;;5.97;;
19280;SDS011;9774;52.034;5.342;2024-02-21T06:32:14;8.73;;;6.25;;
19280;SDS011;9774;52.034;5.342;2024-02-21T06:34:41;9.45;;;6.13;;
19280;SDS011;9774;52.034;5.342;2024-02-21T06:37:08;10.25;;;6.25;;
19280;SDS011;9774;52.034;5.342;2024-02-21T06:39:42;7.25;;;5.53;;
19280;SDS011;9774;52.034;5.342;2024-02-21T06:42:09;9.98;;;6.60;;
19280;SDS011;9774;52.034;5.342;2024-02-21T06:44:38;11.68;;;6.65;;
19280;SDS011;9774;52.034;5.342;2024-02-21T06:47:06;10.15;;;5.70;;
19280;SDS011;9774;52.034;5.342;2024-02-21T06:49:33;9.75;;;7.32;;
19280;SDS011;9774;52.034;5.342;2024-02-21T06:52:02;9.88;;;6.78;;
19280;SDS011;9774;52.034;5.342;2024-02-21T06:54:30;11.32;;;6.20;;
19280;SDS011;9774;52.034;5.342;2024-02-21T06:56:58;8.32;;;6.05;;
19280;SDS011;9774;52.034;5.342;2024-02-21T06:59:26;12.93;;;6.47;;
19280;SDS011;9774;52.034;5.342;2024-02-21T07:01:56;10.23;;;6.65;;
19280;SDS011;9774;52.034;5.342;2024-02-21T07:04:25;10.05;;;5.65;;
19280;SDS011;9774;52.034;5.342;2024-02-21T07:06:54;9.88;;;6.32;;
19280;SDS011;9774;52.034;5.342;2024-02-21T07:09:24;9.85;;;6.20;;
19280;SDS011;9774;52.034;5.342;2024-02-21T07:11:54;8.98;;;5.63;;
19280;SDS011;9774;52.034;5.342;2024-02-21T07:14:23;10.57;;;5.65;;
19280;SDS011;9774;52.034;5.342;2024-02-21T07:16:51;9.68;;;5.40;;
19280;SDS011;9774;52.034;5.342;2024-02-21T07:19:20;8.57;;;5.60;;
19280;SDS011;9774;52.034;5.342;2024-02-21T07:21:49;10.18;;;5.93;;
19280;SDS011;9774;52.034;5.342;2024-02-21T07:24:16;8.93;;;5.53;;
19280;SDS011;9774;52.034;5.342;2024-02-21T07:26:45;10.38;;;5.13;;
19280;SDS011;9774;52.034;5.342;2024-02-21T07:29:12;10.55;;;5.03;;
19280;SDS011;9774;52.034;5.342;2024-02-21T07:31:40;8.20;;;4.72;;
19280;SDS011;9774;52.034;5.342;2024-02-21T07:34:08;12.95;;;5.32;;
19280;SDS011;9774;52.034;5.342;2024-02-21T07:36:36;11.02;;;6.32;;
19280;SDS011;9774;52.034;5.342;2024-02-21T07:39:04;7.63;;;5.10;;
19280;SDS011;9774;52.034;5.342;2024-02-21T07:41:31;7.57;;;5.15;;
19280;SDS011;9774;52.034;5.342;2024-02-21T07:43:59;7.30;;;5.68;;
19280;SDS011;9774;52.034;5.342;2024-02-21T07:46:28;10.80;;;5.43;;
19280;SDS011;9774;52.034;5.342;2024-02-21T07:48:55;9.73;;;5.40;;
19280;SDS011;9774;52.034;5.342;2024-02-21T07:51:22;9.82;;;5.53;;
19280;SDS011;9774;52.034;5.342;2024-02-21T07:53:55;9.02;;;5.32;;
19280;SDS011;9774;52.034;5.342;2024-02-21T07:56:22;9.32;;;5.30;;
19280;SDS011;9774;52.034;5.342;2024-02-21T07:58:49;9.85;;;5.72;;
19280;SDS011;9774;52.034;5.342;2024-02-21T08:01:18;8.55;;;5.80;;
19280;SDS011;9774;52.034;5.342;2024-02-21T08:03:46;9.32;;;5.55;;
19280;SDS011;9774;52.034;5.342;2024-02-21T08:06:13;9.68;;;5.07;;
19280;SDS011;9774;52.034;5.342;2024-02-21T08:08:40;10.95;;;5.97;;
19280;SDS011;9774;52.034;5.342;2024-02-21T08:11:09;8.10;;;6.13;;
19280;SDS011;9774;52.034;5.342;2024-02-21T08:13:36;12.40;;;6.32;;
19280;SDS011;9774;52.034;5.342;2024-02-21T08:16:03;10.02;;;6.35;;
19280;SDS011;9774;52.034;5.342;2024-02-21T08:18:31;10.27;;;6.60;;
19280;SDS011;9774;52.034;5.342;2024-02-21T08:21:01;8.85;;;5.85;;
19280;SDS011;9774;52.034;5.342;2024-02-21T08:23:29;8.20;;;6.13;;
19280;SDS011;9774;52.034;5.342;2024-02-21T08:25:56;10.65;;;6.32;;
19280;SDS011;9774;52.034;5.342;2024-02-21T08:28:25;12.13;;;6.55;;
19280;SDS011;9774;52.034;5.342;2024-02-21T08:30:54;9.95;;;6.78;;
19280;SDS011;9774;52.034;5.342;2024-02-21T08:33:22;12.73;;;6.82;;
19280;SDS011;9774;52.034;5.342;2024-02-21T08:35:50;10.35;;;6.40;;
19280;SDS011;9774;52.034;5.342;2024-02-21T08:38:18;11.05;;;6.03;;
19280;SDS011;9774;52.034;5.342;2024-02-21T08:40:45;11.13;;;5.50;;
19280;SDS011;9774;52.034;5.342;2024-02-21T08:43:12;11.48;;;5.93;;
19280;SDS011;9774;52.034;5.342;2024-02-21T08:45:40;9.15;;;5.95;;
19280;SDS011;9774;52.034;5.342;2024-02-21T08:48:07;7.78;;;5.28;;
19280;SDS011;9774;52.034;5.342;2024-02-21T08:50:35;10.05;;;5.60;;
19280;SDS011;9774;52.034;5.342;2024-02-21T08:53:03;13.43;;;5.90;;
19280;SDS011;9774;52.034;5.342;2024-02-21T08:55:30;8.70;;;5.68;;
19280;SDS011;9774;52.034;5.342;2024-02-21T08:57:57;10.07;;;5.85;;
19280;SDS011;9774;52.034;5.342;2024-02-21T09:00:24;7.20;;;5.32;;
19280;SDS011;9774;52.034;5.342;2024-02-21T09:02:53;9.57;;;5.53;;
19280;SDS011;9774;52.034;5.342;2024-02-21T09:05:22;6.93;;;4.93;;
19280;SDS011;9774;52.034;5.342;2024-02-21T09:07:50;9.52;;;5.22;;
19280;SDS011;9774;52.034;5.342;2024-02-21T09:10:17;10.95;;;5.75;;
19280;SDS011;9774;52.034;5.342;2024-02-21T09:12:44;6.25;;;4.47;;
19280;SDS011;9774;52.034;5.342;2024-02-21T09:15:12;6.80;;;4.95;;
19280;SDS011;9774;52.034;5.342;2024-02-21T09:17:39;8.05;;;5.63;;
19280;SDS011;9774;52.034;5.342;2024-02-21T09:20:09;8.50;;;5.22;;
19280;SDS011;9774;52.034;5.342;2024-02-21T09:22:41;7.55;;;5.35;;
19280;SDS011;9774;52.034;5.342;2024-02-21T09:25:08;8.48;;;4.97;;
19280;SDS011;9774;52.034;5.342;2024-02-21T09:27:37;9.45;;;5.15;;
19280;SDS011;9774;52.034;5.342;2024-02-21T09:30:05;10.45;;;5.03;;
19280;SDS011;9774;52.034;5.342;2024-02-21T09:32:33;10.18;;;4.88;;
19280;SDS011;9774;52.034;5.342;2024-02-21T09:35:00;10.10;;;5.55;;
19280;SDS011;9774;52.034;5.342;2024-02-21T09:37:29;7.93;;;4.97;;
19280;SDS011;9774;52.034;5.342;2024-02-21T09:39:56;9.25;;;5.30;;
19280;SDS011;9774;52.034;5.342;2024-02-21T09:42:25;8.80;;;5.05;;
19280;SDS011;9774;52.034;5.342;2024-02-21T09:45:04;8.82;;;4.55;;
19280;SDS011;9774;52.034;5.342;2024-02-21T09:47:42;6.65;;;4.90;;
19280;SDS011;9774;52.034;5.342;2024-02-21T09:50:19;6.60;;;4.60;;
19280;SDS011;9774;52.034;5.342;2024-02-21T09:52:52;10.13;;;4.38;;
19280;SDS011;9774;52.034;5.342;2024-02-21T09:55:22;6.32;;;4.32;;
19280;SDS011;9774;52.034;5.342;2024-02-21T09:57:52;9.55;;;4.78;;
19280;SDS011;9774;52.034;5.342;2024-02-21T10:00:21;7.75;;;4.47;;
19280;SDS011;9774;52.034;5.342;2024-02-21T10:02:48;5.45;;;3.58;;
19280;SDS011;9774;52.034;5.342;2024-02-21T10:05:15;6.00;;;4.18;;
19280;SDS011;9774;52.034;5.342;2024-02-21T10:07:43;6.30;;;3.97;;
19280;SDS011;9774;52.034;5.342;2024-02-21T10:10:12;8.27;;;4.47;;
19280;SDS011;9774;52.034;5.342;2024-02-21T10:12:47;6.85;;;4.78;;
19280;SDS011;9774;52.034;5.342;2024-02-21T10:15:19;7.55;;;3.95;;
19280;SDS011;9774;52.034;5.342;2024-02-21T10:17:48;6.13;;;3.72;;
19280;SDS011;9774;52.034;5.342;2024-02-21T10:20:16;10.63;;;4.75;;
19280;SDS011;9774;52.034;5.342;2024-02-21T10:22:43;5.40;;;3.25;;
19280;SDS011;9774;52.034;5.342;2024-02-21T10:25:12;8.70;;;4.40;;
19280;SDS011;9774;52.034;5.342;2024-02-21T10:27:40;3.88;;;3.15;;
19280;SDS011;9774;52.034;5.342;2024-02-21T10:30:07;5.88;;;3.70;;
19280;SDS011;9774;52.034;5.342;2024-02-21T10:32:48;5.80;;;3.53;;
19280;SDS011;9774;52.034;5.342;2024-02-21T10:35:25;5.10;;;4.10;;
19280;SDS011;9774;52.034;5.342;2024-02-21T10:37:54;4.07;;;2.90;;
19280;SDS011;9774;52.034;5.342;2024-02-21T10:40:24;4.82;;;3.45;;
19280;SDS011;9774;52.034;5.342;2024-02-21T10:42:56;5.38;;;3.70;;
19280;SDS011;9774;52.034;5.342;2024-02-21T10:45:29;5.35;;;3.53;;
19280;SDS011;9774;52.034;5.342;2024-02-21T10:48:00;4.18;;;3.17;;
19280;SDS011;9774;52.034;5.342;2024-02-21T10:50:47;6.00;;;3.30;;
19280;SDS011;9774;52.034;5.342;2024-02-21T10:53:32;4.05;;;2.97;;
19280;SDS011;9774;52.034;5.342;2024-02-21T10:56:15;6.20;;;3.20;;
19280;SDS011;9774;52.034;5.342;2024-02-21T10:58:52;3.05;;;2.47;;
19280;SDS011;9774;52.034;5.342;2024-02-21T11:01:20;4.38;;;3.17;;
19280;SDS011;9774;52.034;5.342;2024-02-21T11:03:49;4.82;;;3.40;;
19280;SDS011;9774;52.034;5.342;2024-02-21T11:06:20;4.10;;;3.28;;
19280;SDS011;9774;52.034;5.342;2024-02-21T11:08:58;5.40;;;3.75;;
19280;SDS011;9774;52.034;5.342;2024-02-21T11:11:31;3.90;;;3.28;;
19280;SDS011;9774;52.034;5.342;2024-02-21T11:14:06;4.32;;;3.47;;
19280;SDS011;9774;52.034;5.342;2024-02-21T11:16:35;4.28;;;3.50;;
19280;SDS011;9774;52.034;5.342;2024-02-21T11:19:07;4.28;;;3.55;;
19280;SDS011;9774;52.034;5.342;2024-02-21T11:21:36;6.30;;;3.67;;
19280;SDS011;9774;52.034;5.342;2024-02-21T11:24:04;4.90;;;3.80;;
19280;SDS011;9774;52.034;5.342;2024-02-21T11:26:33;5.80;;;4.05;;
19280;SDS011;9774;52.034;5.342;2024-02-21T11:29:04;5.30;;;3.53;;
19280;SDS011;9774;52.034;5.342;2024-02-21T11:31:40;4.57;;;3.60;;
19280;SDS011;9774;52.034;5.342;2024-02-21T11:34:10;6.88;;;4.25;;
19280;SDS011;9774;52.034;5.342;2024-02-21T11:36:46;5.28;;;4.25;;
19280;SDS011;9774;52.034;5.342;2024-02-21T11:39:17;6.28;;;4.40;;
19280;SDS011;9774;52.034;5.342;2024-02-21T11:44:35;7.35;;;4.68;;
19280;SDS011;9774;52.034;5.342;2024-02-21T11:47:05;5.28;;;3.58;;
19280;SDS011;9774;52.034;5.342;2024-02-21T11:49:35;6.93;;;4.60;;
19280;SDS011;9774;52.034;5.342;2024-02-21T11:52:05;7.47;;;4.07;;
19280;SDS011;9774;52.034;5.342;2024-02-21T11:54:33;5.45;;;3.70;;
19280;SDS011;9774;52.034;5.342;2024-02-21T11:57:00;5.72;;;4.15;;
19280;SDS011;9774;52.034;5.342;2024-02-21T11:59:31;6.20;;;4.07;;
19280;SDS011;9774;52.034;5.342;2024-02-21T12:01:59;5.00;;;3.80;;
19280;SDS011;9774;52.034;5.342;2024-02-21T12:04:28;5.93;;;3.95;;
19280;SDS011;9774;52.034;5.342;2024-02-21T12:06:57;5.38;;;4.05;;
19280;SDS011;9774;52.034;5.342;2024-02-21T12:09:25;5.97;;;4.35;;
19280;SDS011;9774;52.034;5.342;2024-02-21T12:11:58;5.53;;;3.97;;
19280;SDS011;9774;52.034;5.342;2024-02-21T12:14:28;4.38;;;3.97;;
19280;SDS011;9774;52.034;5.342;2024-02-21T12:16:58;4.60;;;3.47;;
19280;SDS011;9774;52.034;5.342;2024-02-21T12:19:29;4.63;;;3.85;;
19280;SDS011;9774;52.034;5.342;2024-02-21T12:21:58;7.22;;;3.85;;
19280;SDS011;9774;52.034;5.342;2024-02-21T12:24:26;6.57;;;3.97;;
19280;SDS011;9774;52.034;5.342;2024-02-21T12:26:55;4.82;;;3.50;;
19280;SDS011;9774;52.034;5.342;2024-02-21T12:29:23;4.30;;;3.90;;
19280;SDS011;9774;52.034;5.342;2024-02-21T12:31:52;4.25;;;3.00;;
19280;SDS011;9774;52.034;5.342;2024-02-21T12:34:20;5.40;;;3.70;;
19280;SDS011;9774;52.034;5.342;2024-02-21T12:36:49;6.63;;;3.20;;
19280;SDS011;9774;52.034;5.342;2024-02-21T12:39:17;5.78;;;3.65;;
19280;SDS011;9774;52.034;5.342;2024-02-21T12:41:44;4.22;;;3.35;;
19280;SDS011;9774;52.034;5.342;2024-02-21T12:44:11;4.78;;;3.05;;
19280;SDS011;9774;52.034;5.342;2024-02-21T12:46:38;4.75;;;2.70;;
19280;SDS011;9774;52.034;5.342;2024-02-21T12:49:07;6.72;;;3.63;;
19280;SDS011;9774;52.034;5.342;2024-02-21T12:51:34;4.25;;;2.53;;
19280;SDS011;9774;52.034;5.342;2024-02-21T12:54:04;5.65;;;2.92;;
19280;SDS011;9774;52.034;5.342;2024-02-21T12:56:36;5.30;;;3.50;;
19280;SDS011;9774;52.034;5.342;2024-02-21T12:59:05;3.88;;;2.55;;
19280;SDS011;9774;52.034;5.342;2024-02-21T13:01:34;6.78;;;3.03;;
19280;SDS011;9774;52.034;5.342;2024-02-21T13:04:01;6.25;;;3.30;;
19280;SDS011;9774;52.034;5.342;2024-02-21T13:06:30;3.95;;;2.92;;
19280;SDS011;9774;52.034;5.342;2024-02-21T13:08:57;6.13;;;2.65;;
19280;SDS011;9774;52.034;5.342;2024-02-21T13:11:28;5.05;;;2.80;;
19280;SDS011;9774;52.034;5.342;2024-02-21T13:13:56;4.28;;;2.70;;
19280;SDS011;9774;52.034;5.342;2024-02-21T13:16:23;2.97;;;2.60;;
19280;SDS011;9774;52.034;5.342;2024-02-21T13:18:51;6.45;;;2.58;;
19280;SDS011;9774;52.034;5.342;2024-02-21T13:21:18;4.35;;;2.50;;
19280;SDS011;9774;52.034;5.342;2024-02-21T13:23:47;4.70;;;2.88;;
19280;SDS011;9774;52.034;5.342;2024-02-21T13:26:14;4.13;;;2.72;;
19280;SDS011;9774;52.034;5.342;2024-02-21T13:28:42;4.75;;;2.75;;
19280;SDS011;9774;52.034;5.342;2024-02-21T13:31:13;6.13;;;2.67;;
19280;SDS011;9774;52.034;5.342;2024-02-21T13:33:41;5.85;;;2.85;;
19280;SDS011;9774;52.034;5.342;2024-02-21T13:36:09;5.65;;;2.83;;
19280;SDS011;9774;52.034;5.342;2024-02-21T13:38:36;2.97;;;2.42;;
19280;SDS011;9774;52.034;5.342;2024-02-21T13:41:05;4.78;;;3.35;;
19280;SDS011;9774;52.034;5.342;2024-02-21T13:43:32;6.50;;;2.67;;
19280;SDS011;9774;52.034;5.342;2024-02-21T13:46:00;4.38;;;2.33;;
19280;SDS011;9774;52.034;5.342;2024-02-21T13:48:30;4.45;;;2.63;;
19280;SDS011;9774;52.034;5.342;2024-02-21T13:50:58;3.53;;;2.50;;
19280;SDS011;9774;52.034;5.342;2024-02-21T13:53:27;4.95;;;2.90;;
19280;SDS011;9774;52.034;5.342;2024-02-21T13:55:54;5.10;;;2.75;;
19280;SDS011;9774;52.034;5.342;2024-02-21T13:58:23;5.28;;;2.45;;
19280;SDS011;9774;52.034;5.342;2024-02-21T14:00:51;4.35;;;2.38;;
19280;SDS011;9774;52.034;5.342;2024-02-21T14:03:18;6.25;;;2.15;;
19280;SDS011;9774;52.034;5.342;2024-02-21T14:05:46;4.13;;;1.83;;
19280;SDS011;9774;52.034;5.342;2024-02-21T14:08:13;3.85;;;2.20;;
19280;SDS011;9774;52.034;5.342;2024-02-21T14:10:40;4.50;;;2.70;;
19280;SDS011;9774;52.034;5.342;2024-02-21T14:13:08;5.82;;;2.95;;
19280;SDS011;9774;52.034;5.342;2024-02-21T14:15:37;4.28;;;2.25;;
19280;SDS011;9774;52.034;5.342;2024-02-21T14:18:06;6.20;;;2.72;;
19280;SDS011;9774;52.034;5.342;2024-02-21T14:20:34;3.50;;;2.15;;
19280;SDS011;9774;52.034;5.342;2024-02-21T14:23:02;4.07;;;2.40;;
19280;SDS011;9774;52.034;5.342;2024-02-21T14:25:29;4.93;;;2.58;;
19280;SDS011;9774;52.034;5.342;2024-02-21T14:27:58;4.53;;;2.25;;
19280;SDS011;9774;52.034;5.342;2024-02-21T14:30:27;3.80;;;2.17;;
19280;SDS011;9774;52.034;5.342;2024-02-21T14:32:56;4.35;;;2.17;;
19280;SDS011;9774;52.034;5.342;2024-02-21T14:35:23;6.82;;;2.22;;
19280;SDS011;9774;52.034;5.342;2024-02-21T14:37:51;5.88;;;2.45;;
19280;SDS011;9774;52.034;5.342;2024-02-21T14:40:20;3.05;;;1.90;;
19280;SDS011;9774;52.034;5.342;2024-02-21T14:42:48;4.80;;;2.20;;
19280;SDS011;9774;52.034;5.342;2024-02-21T14:45:15;4.57;;;2.38;;
19280;SDS011;9774;52.034;5.342;2024-02-21T14:47:42;5.78;;;2.15;;
19280;SDS011;9774;52.034;5.342;2024-02-21T14:50:11;3.08;;;1.92;;
19280;SDS011;9774;52.034;5.342;2024-02-21T14:52:38;3.88;;;1.90;;
19280;SDS011;9774;52.034;5.342;2024-02-21T14:55:05;2.42;;;1.80;;
19280;SDS011;9774;52.034;5.342;2024-02-21T14:57:33;4.47;;;2.42;;
19280;SDS011;9774;52.034;5.342;2024-02-21T15:00:01;3.03;;;2.17;;
19280;SDS011;9774;52.034;5.342;2024-02-21T15:02:33;3.75;;;2.22;;
19280;SDS011;9774;52.034;5.342;2024-02-21T15:05:00;4.55;;;2.28;;
19280;SDS011;9774;52.034;5.342;2024-02-21T15:07:29;3.33;;;2.33;;
19280;SDS011;9774;52.034;5.342;2024-02-21T15:09:56;4.97;;;2.03;;
19280;SDS011;9774;52.034;5.342;2024-02-21T15:12:24;3.80;;;2.40;;